sensor_id;sensor_type;location;lat;lon;timestamp;P1;durP1;ratioP1;P2;durP2;ratioP2
77868;SDS011;67231;59.144;37.934;2023-04-21T00:00:54;13.70;;;4.50;;
77868;SDS011;67231;59.144;37.934;2023-04-21T00:03:21;10.77;;;3.70;;
77868;SDS011;67231;59.144;37.934;2023-04-21T00:05:49;11.00;;;4.07;;
77868;SDS011;67231;59.144;37.934;2023-04-21T00:08:16;9.52;;;3.78;;
77868;SDS011;67231;59.144;37.934;2023-04-21T00:10:44;11.75;;;3.97;;
77868;SDS011;67231;59.144;37.934;2023-04-21T00:13:11;13.48;;;4.40;;
77868;SDS011;67231;59.144;37.934;2023-04-21T00:15:38;9.25;;;3.97;;
77868;SDS011;67231;59.144;37.934;2023-04-21T00:18:05;13.82;;;4.63;;
77868;SDS011;67231;59.144;37.934;2023-04-21T00:20:31;12.35;;;4.53;;
77868;SDS011;67231;59.144;37.934;2023-04-21T00:22:58;12.35;;;4.40;;
77868;SDS011;67231;59.144;37.934;2023-04-21T00:25:25;10.23;;;3.65;;
77868;SDS011;67231;59.144;37.934;2023-04-21T00:27:52;11.80;;;3.58;;
77868;SDS011;67231;59.144;37.934;2023-04-21T00:30:18;9.38;;;3.40;;
77868;SDS011;67231;59.144;37.934;2023-04-21T00:32:45;8.77;;;3.95;;
77868;SDS011;67231;59.144;37.934;2023-04-21T00:35:11;16.45;;;4.07;;
77868;SDS011;67231;59.144;37.934;2023-04-21T00:37:38;9.70;;;3.50;;
77868;SDS011;67231;59.144;37.934;2023-04-21T00:40:07;11.23;;;3.92;;
77868;SDS011;67231;59.144;37.934;2023-04-21T00:42:34;12.25;;;3.90;;
77868;SDS011;67231;59.144;37.934;2023-04-21T00:45:02;12.43;;;3.83;;
77868;SDS011;67231;59.144;37.934;2023-04-21T00:47:31;11.60;;;3.70;;
77868;SDS011;67231;59.144;37.934;2023-04-21T00:49:58;9.40;;;3.72;;
77868;SDS011;67231;59.144;37.934;2023-04-21T00:52:25;11.65;;;3.92;;
77868;SDS011;67231;59.144;37.934;2023-04-21T00:54:52;11.60;;;3.53;;
77868;SDS011;67231;59.144;37.934;2023-04-21T00:57:20;10.48;;;3.80;;
77868;SDS011;67231;59.144;37.934;2023-04-21T00:59:47;12.90;;;3.42;;
77868;SDS011;67231;59.144;37.934;2023-04-21T01:02:15;11.57;;;3.92;;
77868;SDS011;67231;59.144;37.934;2023-04-21T01:04:42;12.48;;;3.60;;
77868;SDS011;67231;59.144;37.934;2023-04-21T01:07:11;10.48;;;3.35;;
77868;SDS011;67231;59.144;37.934;2023-04-21T01:09:38;11.00;;;3.78;;
77868;SDS011;67231;59.144;37.934;2023-04-21T01:12:08;9.15;;;3.60;;
77868;SDS011;67231;59.144;37.934;2023-04-21T01:14:37;15.20;;;3.53;;
77868;SDS011;67231;59.144;37.934;2023-04-21T01:17:04;13.35;;;3.42;;
77868;SDS011;67231;59.144;37.934;2023-04-21T01:19:38;11.25;;;3.42;;
77868;SDS011;67231;59.144;37.934;2023-04-21T01:22:08;8.30;;;3.22;;
77868;SDS011;67231;59.144;37.934;2023-04-21T01:24:41;10.98;;;3.58;;
77868;SDS011;67231;59.144;37.934;2023-04-21T01:27:12;12.07;;;3.40;;
77868;SDS011;67231;59.144;37.934;2023-04-21T01:29:41;8.57;;;3.22;;
77868;SDS011;67231;59.144;37.934;2023-04-21T01:32:10;10.50;;;3.45;;
77868;SDS011;67231;59.144;37.934;2023-04-21T01:37:09;13.25;;;3.17;;
77868;SDS011;67231;59.144;37.934;2023-04-21T01:39:40;9.13;;;3.10;;
77868;SDS011;67231;59.144;37.934;2023-04-21T01:42:08;12.07;;;3.50;;
77868;SDS011;67231;59.144;37.934;2023-04-21T01:44:35;8.90;;;3.22;;
77868;SDS011;67231;59.144;37.934;2023-04-21T01:47:02;11.82;;;2.92;;
77868;SDS011;67231;59.144;37.934;2023-04-21T01:49:29;6.60;;;2.42;;
77868;SDS011;67231;59.144;37.934;2023-04-21T01:51:56;9.13;;;2.70;;
77868;SDS011;67231;59.144;37.934;2023-04-21T01:54:23;10.52;;;2.80;;
77868;SDS011;67231;59.144;37.934;2023-04-21T01:56:51;9.07;;;2.72;;
77868;SDS011;67231;59.144;37.934;2023-04-21T01:59:17;12.05;;;3.00;;
77868;SDS011;67231;59.144;37.934;2023-04-21T02:01:45;7.32;;;2.67;;
77868;SDS011;67231;59.144;37.934;2023-04-21T02:04:11;9.60;;;2.85;;
77868;SDS011;67231;59.144;37.934;2023-04-21T02:06:37;6.55;;;2.45;;
77868;SDS011;67231;59.144;37.934;2023-04-21T02:09:05;5.18;;;2.67;;
77868;SDS011;67231;59.144;37.934;2023-04-21T02:11:32;4.63;;;2.40;;
77868;SDS011;67231;59.144;37.934;2023-04-21T02:13:59;7.85;;;2.63;;
77868;SDS011;67231;59.144;37.934;2023-04-21T02:16:26;5.32;;;2.50;;
77868;SDS011;67231;59.144;37.934;2023-04-21T02:18:53;9.05;;;2.70;;
77868;SDS011;67231;59.144;37.934;2023-04-21T02:21:22;5.35;;;2.30;;
77868;SDS011;67231;59.144;37.934;2023-04-21T02:23:50;8.23;;;2.60;;
77868;SDS011;67231;59.144;37.934;2023-04-21T02:26:18;5.13;;;2.47;;
77868;SDS011;67231;59.144;37.934;2023-04-21T02:28:45;7.80;;;2.42;;
77868;SDS011;67231;59.144;37.934;2023-04-21T02:31:15;8.85;;;3.38;;
77868;SDS011;67231;59.144;37.934;2023-04-21T02:33:43;4.97;;;2.60;;
77868;SDS011;67231;59.144;37.934;2023-04-21T02:36:11;7.50;;;2.70;;
77868;SDS011;67231;59.144;37.934;2023-04-21T02:38:38;7.03;;;3.13;;
77868;SDS011;67231;59.144;37.934;2023-04-21T02:41:04;10.93;;;4.03;;
77868;SDS011;67231;59.144;37.934;2023-04-21T02:43:33;12.98;;;3.22;;
77868;SDS011;67231;59.144;37.934;2023-04-21T02:46:04;9.05;;;2.67;;
77868;SDS011;67231;59.144;37.934;2023-04-21T02:48:33;9.20;;;3.10;;
77868;SDS011;67231;59.144;37.934;2023-04-21T02:51:00;14.38;;;3.85;;
77868;SDS011;67231;59.144;37.934;2023-04-21T02:53:26;10.50;;;3.28;;
77868;SDS011;67231;59.144;37.934;2023-04-21T02:55:53;9.95;;;3.35;;
77868;SDS011;67231;59.144;37.934;2023-04-21T02:58:19;15.80;;;3.88;;
77868;SDS011;67231;59.144;37.934;2023-04-21T03:00:46;12.10;;;3.97;;
77868;SDS011;67231;59.144;37.934;2023-04-21T03:03:14;13.38;;;3.55;;
77868;SDS011;67231;59.144;37.934;2023-04-21T03:08:08;14.23;;;3.97;;
77868;SDS011;67231;59.144;37.934;2023-04-21T03:10:35;15.32;;;4.10;;
77868;SDS011;67231;59.144;37.934;2023-04-21T03:13:05;10.73;;;3.70;;
77868;SDS011;67231;59.144;37.934;2023-04-21T03:15:31;12.30;;;4.47;;
77868;SDS011;67231;59.144;37.934;2023-04-21T03:18:00;14.63;;;4.70;;
77868;SDS011;67231;59.144;37.934;2023-04-21T03:20:27;13.63;;;4.63;;
77868;SDS011;67231;59.144;37.934;2023-04-21T03:22:54;13.27;;;4.53;;
77868;SDS011;67231;59.144;37.934;2023-04-21T03:25:20;13.13;;;4.20;;
77868;SDS011;67231;59.144;37.934;2023-04-21T03:27:47;12.02;;;4.03;;
77868;SDS011;67231;59.144;37.934;2023-04-21T03:30:14;16.20;;;4.85;;
77868;SDS011;67231;59.144;37.934;2023-04-21T03:32:40;14.25;;;5.18;;
77868;SDS011;67231;59.144;37.934;2023-04-21T03:35:07;17.33;;;6.28;;
77868;SDS011;67231;59.144;37.934;2023-04-21T03:37:33;16.63;;;5.25;;
77868;SDS011;67231;59.144;37.934;2023-04-21T03:40:00;15.77;;;4.90;;
77868;SDS011;67231;59.144;37.934;2023-04-21T03:42:27;16.58;;;4.65;;
77868;SDS011;67231;59.144;37.934;2023-04-21T03:45:00;15.90;;;4.45;;
77868;SDS011;67231;59.144;37.934;2023-04-21T03:47:29;12.18;;;3.80;;
77868;SDS011;67231;59.144;37.934;2023-04-21T03:49:57;12.60;;;4.72;;
77868;SDS011;67231;59.144;37.934;2023-04-21T03:52:23;20.90;;;4.40;;
77868;SDS011;67231;59.144;37.934;2023-04-21T03:54:50;20.23;;;5.25;;
77868;SDS011;67231;59.144;37.934;2023-04-21T03:57:16;22.85;;;5.60;;
77868;SDS011;67231;59.144;37.934;2023-04-21T03:59:43;19.67;;;5.78;;
77868;SDS011;67231;59.144;37.934;2023-04-21T04:02:09;19.75;;;7.07;;
77868;SDS011;67231;59.144;37.934;2023-04-21T04:04:36;17.38;;;5.45;;
77868;SDS011;67231;59.144;37.934;2023-04-21T04:07:02;13.55;;;4.18;;
77868;SDS011;67231;59.144;37.934;2023-04-21T04:09:29;5.45;;;2.83;;
77868;SDS011;67231;59.144;37.934;2023-04-21T04:11:56;12.68;;;3.40;;
77868;SDS011;67231;59.144;37.934;2023-04-21T04:14:22;8.23;;;3.45;;
77868;SDS011;67231;59.144;37.934;2023-04-21T04:16:49;7.43;;;3.00;;
77868;SDS011;67231;59.144;37.934;2023-04-21T04:19:15;14.52;;;3.78;;
77868;SDS011;67231;59.144;37.934;2023-04-21T04:21:42;8.82;;;3.17;;
77868;SDS011;67231;59.144;37.934;2023-04-21T04:24:08;12.65;;;4.20;;
77868;SDS011;67231;59.144;37.934;2023-04-21T04:26:36;10.23;;;2.92;;
77868;SDS011;67231;59.144;37.934;2023-04-21T04:31:35;8.13;;;3.08;;
77868;SDS011;67231;59.144;37.934;2023-04-21T04:34:01;13.30;;;3.15;;
77868;SDS011;67231;59.144;37.934;2023-04-21T04:36:28;11.73;;;3.22;;
77868;SDS011;67231;59.144;37.934;2023-04-21T04:38:55;12.40;;;4.07;;
77868;SDS011;67231;59.144;37.934;2023-04-21T04:41:23;16.60;;;3.72;;
77868;SDS011;67231;59.144;37.934;2023-04-21T04:43:49;18.75;;;4.15;;
77868;SDS011;67231;59.144;37.934;2023-04-21T04:46:17;15.05;;;3.97;;
77868;SDS011;67231;59.144;37.934;2023-04-21T04:48:45;14.10;;;4.43;;
77868;SDS011;67231;59.144;37.934;2023-04-21T04:51:11;15.75;;;4.82;;
77868;SDS011;67231;59.144;37.934;2023-04-21T04:53:38;15.00;;;3.88;;
77868;SDS011;67231;59.144;37.934;2023-04-21T04:56:04;13.65;;;3.63;;
77868;SDS011;67231;59.144;37.934;2023-04-21T04:58:31;13.45;;;3.90;;
77868;SDS011;67231;59.144;37.934;2023-04-21T05:00:57;16.77;;;4.47;;
77868;SDS011;67231;59.144;37.934;2023-04-21T05:03:24;14.65;;;4.03;;
77868;SDS011;67231;59.144;37.934;2023-04-21T05:05:50;14.68;;;4.22;;
77868;SDS011;67231;59.144;37.934;2023-04-21T05:08:17;13.45;;;5.28;;
77868;SDS011;67231;59.144;37.934;2023-04-21T05:10:43;21.65;;;7.57;;
77868;SDS011;67231;59.144;37.934;2023-04-21T05:13:09;20.55;;;9.40;;
77868;SDS011;67231;59.144;37.934;2023-04-21T05:15:36;18.70;;;6.13;;
77868;SDS011;67231;59.144;37.934;2023-04-21T05:18:02;7.88;;;2.92;;
77868;SDS011;67231;59.144;37.934;2023-04-21T05:20:29;7.60;;;2.53;;
77868;SDS011;67231;59.144;37.934;2023-04-21T05:22:55;6.30;;;2.35;;
77868;SDS011;67231;59.144;37.934;2023-04-21T05:25:21;5.97;;;2.03;;
77868;SDS011;67231;59.144;37.934;2023-04-21T05:27:48;6.95;;;2.20;;
77868;SDS011;67231;59.144;37.934;2023-04-21T05:30:14;6.18;;;2.00;;
77868;SDS011;67231;59.144;37.934;2023-04-21T05:32:41;5.65;;;2.25;;
77868;SDS011;67231;59.144;37.934;2023-04-21T05:35:07;5.55;;;2.58;;
77868;SDS011;67231;59.144;37.934;2023-04-21T05:37:34;3.72;;;2.40;;
77868;SDS011;67231;59.144;37.934;2023-04-21T05:40:00;9.45;;;2.20;;
77868;SDS011;67231;59.144;37.934;2023-04-21T05:42:29;5.32;;;2.05;;
77868;SDS011;67231;59.144;37.934;2023-04-21T05:44:56;18.10;;;5.50;;
77868;SDS011;67231;59.144;37.934;2023-04-21T05:47:22;26.45;;;6.68;;
77868;SDS011;67231;59.144;37.934;2023-04-21T05:49:52;18.63;;;5.70;;
77868;SDS011;67231;59.144;37.934;2023-04-21T05:52:19;18.23;;;5.82;;
77868;SDS011;67231;59.144;37.934;2023-04-21T05:54:48;20.33;;;5.57;;
77868;SDS011;67231;59.144;37.934;2023-04-21T05:57:14;24.40;;;5.68;;
77868;SDS011;67231;59.144;37.934;2023-04-21T05:59:41;18.58;;;5.30;;
77868;SDS011;67231;59.144;37.934;2023-04-21T06:02:08;19.77;;;5.68;;
77868;SDS011;67231;59.144;37.934;2023-04-21T06:04:35;22.08;;;6.68;;
77868;SDS011;67231;59.144;37.934;2023-04-21T06:07:08;28.67;;;8.07;;
77868;SDS011;67231;59.144;37.934;2023-04-21T06:09:40;29.02;;;7.65;;
77868;SDS011;67231;59.144;37.934;2023-04-21T06:12:06;24.33;;;6.65;;
77868;SDS011;67231;59.144;37.934;2023-04-21T06:14:33;26.20;;;7.53;;
77868;SDS011;67231;59.144;37.934;2023-04-21T06:16:59;32.10;;;7.45;;
77868;SDS011;67231;59.144;37.934;2023-04-21T06:19:25;24.58;;;7.68;;
77868;SDS011;67231;59.144;37.934;2023-04-21T06:21:52;23.42;;;6.47;;
77868;SDS011;67231;59.144;37.934;2023-04-21T06:24:18;20.83;;;7.30;;
77868;SDS011;67231;59.144;37.934;2023-04-21T06:26:51;23.75;;;6.60;;
77868;SDS011;67231;59.144;37.934;2023-04-21T06:29:18;26.58;;;6.80;;
77868;SDS011;67231;59.144;37.934;2023-04-21T06:31:46;25.15;;;6.68;;
77868;SDS011;67231;59.144;37.934;2023-04-21T06:34:12;30.63;;;7.75;;
77868;SDS011;67231;59.144;37.934;2023-04-21T06:36:39;30.40;;;8.10;;
77868;SDS011;67231;59.144;37.934;2023-04-21T06:39:05;25.85;;;6.68;;
77868;SDS011;67231;59.144;37.934;2023-04-21T06:41:32;23.02;;;7.07;;
77868;SDS011;67231;59.144;37.934;2023-04-21T06:43:58;24.98;;;7.10;;
77868;SDS011;67231;59.144;37.934;2023-04-21T06:46:25;21.65;;;6.68;;
77868;SDS011;67231;59.144;37.934;2023-04-21T06:48:51;20.55;;;7.20;;
77868;SDS011;67231;59.144;37.934;2023-04-21T06:51:17;26.35;;;7.03;;
77868;SDS011;67231;59.144;37.934;2023-04-21T06:53:44;20.05;;;6.15;;
77868;SDS011;67231;59.144;37.934;2023-04-21T06:56:10;16.98;;;5.93;;
77868;SDS011;67231;59.144;37.934;2023-04-21T06:58:37;24.20;;;6.38;;
77868;SDS011;67231;59.144;37.934;2023-04-21T07:01:03;26.35;;;6.78;;
77868;SDS011;67231;59.144;37.934;2023-04-21T07:03:29;18.25;;;6.40;;
77868;SDS011;67231;59.144;37.934;2023-04-21T07:05:56;20.25;;;5.82;;
77868;SDS011;67231;59.144;37.934;2023-04-21T07:08:23;26.25;;;6.88;;
77868;SDS011;67231;59.144;37.934;2023-04-21T07:10:50;24.77;;;7.00;;
77868;SDS011;67231;59.144;37.934;2023-04-21T07:13:16;24.60;;;8.73;;
77868;SDS011;67231;59.144;37.934;2023-04-21T07:15:43;34.22;;;10.13;;
77868;SDS011;67231;59.144;37.934;2023-04-21T07:18:09;32.35;;;9.65;;
77868;SDS011;67231;59.144;37.934;2023-04-21T07:20:35;41.45;;;13.85;;
77868;SDS011;67231;59.144;37.934;2023-04-21T07:23:02;47.17;;;18.45;;
77868;SDS011;67231;59.144;37.934;2023-04-21T07:25:28;53.00;;;19.75;;
77868;SDS011;67231;59.144;37.934;2023-04-21T07:27:55;35.88;;;13.63;;
77868;SDS011;67231;59.144;37.934;2023-04-21T07:30:21;25.00;;;8.02;;
77868;SDS011;67231;59.144;37.934;2023-04-21T07:32:48;12.95;;;3.92;;
77868;SDS011;67231;59.144;37.934;2023-04-21T07:35:14;10.38;;;3.33;;
77868;SDS011;67231;59.144;37.934;2023-04-21T07:37:41;6.07;;;2.50;;
77868;SDS011;67231;59.144;37.934;2023-04-21T07:40:07;4.50;;;2.40;;
77868;SDS011;67231;59.144;37.934;2023-04-21T07:42:34;4.63;;;2.33;;
77868;SDS011;67231;59.144;37.934;2023-04-21T07:45:01;11.98;;;3.90;;
77868;SDS011;67231;59.144;37.934;2023-04-21T07:47:32;7.15;;;2.90;;
77868;SDS011;67231;59.144;37.934;2023-04-21T07:49:58;8.90;;;2.47;;
77868;SDS011;67231;59.144;37.934;2023-04-21T07:52:25;8.45;;;3.10;;
77868;SDS011;67231;59.144;37.934;2023-04-21T07:54:51;11.02;;;2.45;;
77868;SDS011;67231;59.144;37.934;2023-04-21T07:57:18;6.80;;;2.72;;
77868;SDS011;67231;59.144;37.934;2023-04-21T07:59:44;5.40;;;2.50;;
77868;SDS011;67231;59.144;37.934;2023-04-21T08:02:11;9.55;;;2.60;;
77868;SDS011;67231;59.144;37.934;2023-04-21T08:04:37;9.27;;;3.08;;
77868;SDS011;67231;59.144;37.934;2023-04-21T08:07:04;5.65;;;2.40;;
77868;SDS011;67231;59.144;37.934;2023-04-21T08:09:30;12.68;;;3.50;;
77868;SDS011;67231;59.144;37.934;2023-04-21T08:11:57;6.25;;;3.10;;
77868;SDS011;67231;59.144;37.934;2023-04-21T08:14:23;9.07;;;3.80;;
77868;SDS011;67231;59.144;37.934;2023-04-21T08:16:51;10.57;;;4.10;;
77868;SDS011;67231;59.144;37.934;2023-04-21T08:19:18;7.57;;;3.47;;
77868;SDS011;67231;59.144;37.934;2023-04-21T08:21:44;15.45;;;4.90;;
77868;SDS011;67231;59.144;37.934;2023-04-21T08:24:10;14.88;;;5.93;;
77868;SDS011;67231;59.144;37.934;2023-04-21T08:26:37;17.85;;;6.13;;
77868;SDS011;67231;59.144;37.934;2023-04-21T08:29:03;14.93;;;4.40;;
77868;SDS011;67231;59.144;37.934;2023-04-21T08:31:32;9.95;;;4.30;;
77868;SDS011;67231;59.144;37.934;2023-04-21T08:33:58;17.52;;;5.38;;
77868;SDS011;67231;59.144;37.934;2023-04-21T08:36:27;21.20;;;5.93;;
77868;SDS011;67231;59.144;37.934;2023-04-21T08:38:53;11.02;;;2.83;;
77868;SDS011;67231;59.144;37.934;2023-04-21T08:41:20;22.08;;;2.60;;
77868;SDS011;67231;59.144;37.934;2023-04-21T08:43:47;9.13;;;1.92;;
77868;SDS011;67231;59.144;37.934;2023-04-21T08:46:14;7.78;;;1.90;;
77868;SDS011;67231;59.144;37.934;2023-04-21T08:48:41;8.65;;;1.90;;
77868;SDS011;67231;59.144;37.934;2023-04-21T08:51:08;9.35;;;2.05;;
77868;SDS011;67231;59.144;37.934;2023-04-21T08:53:35;5.00;;;1.50;;
77868;SDS011;67231;59.144;37.934;2023-04-21T08:56:02;7.18;;;1.80;;
77868;SDS011;67231;59.144;37.934;2023-04-21T08:58:29;6.53;;;1.40;;
77868;SDS011;67231;59.144;37.934;2023-04-21T09:00:56;5.55;;;1.55;;
77868;SDS011;67231;59.144;37.934;2023-04-21T09:03:25;2.97;;;1.40;;
77868;SDS011;67231;59.144;37.934;2023-04-21T09:05:59;4.18;;;1.15;;
77868;SDS011;67231;59.144;37.934;2023-04-21T09:08:27;1.63;;;1.05;;
77868;SDS011;67231;59.144;37.934;2023-04-21T09:10:56;3.75;;;1.02;;
77868;SDS011;67231;59.144;37.934;2023-04-21T09:13:28;3.55;;;1.23;;
77868;SDS011;67231;59.144;37.934;2023-04-21T09:15:57;5.90;;;2.00;;
77868;SDS011;67231;59.144;37.934;2023-04-21T09:18:25;12.68;;;4.35;;
77868;SDS011;67231;59.144;37.934;2023-04-21T09:21:12;12.15;;;3.28;;
77868;SDS011;67231;59.144;37.934;2023-04-21T09:26:15;13.02;;;5.90;;
77868;SDS011;67231;59.144;37.934;2023-04-21T09:28:43;14.07;;;6.55;;
77868;SDS011;67231;59.144;37.934;2023-04-21T09:31:20;9.98;;;3.08;;
77868;SDS011;67231;59.144;37.934;2023-04-21T09:33:53;6.57;;;3.05;;
77868;SDS011;67231;59.144;37.934;2023-04-21T09:36:22;12.10;;;3.58;;
77868;SDS011;67231;59.144;37.934;2023-04-21T09:38:58;5.85;;;2.90;;
77868;SDS011;67231;59.144;37.934;2023-04-21T09:41:27;9.32;;;2.90;;
77868;SDS011;67231;59.144;37.934;2023-04-21T09:43:53;6.28;;;1.70;;
77868;SDS011;67231;59.144;37.934;2023-04-21T09:46:19;4.07;;;1.60;;
77868;SDS011;67231;59.144;37.934;2023-04-21T09:48:47;8.55;;;2.25;;
77868;SDS011;67231;59.144;37.934;2023-04-21T09:51:15;5.07;;;1.73;;
77868;SDS011;67231;59.144;37.934;2023-04-21T09:53:43;5.18;;;1.80;;
77868;SDS011;67231;59.144;37.934;2023-04-21T09:56:11;3.38;;;1.55;;
77868;SDS011;67231;59.144;37.934;2023-04-21T09:58:40;5.47;;;1.90;;
77868;SDS011;67231;59.144;37.934;2023-04-21T10:01:17;6.78;;;2.00;;
77868;SDS011;67231;59.144;37.934;2023-04-21T10:03:46;10.95;;;4.13;;
77868;SDS011;67231;59.144;37.934;2023-04-21T10:06:13;7.60;;;2.75;;
77868;SDS011;67231;59.144;37.934;2023-04-21T10:08:40;10.38;;;2.92;;
77868;SDS011;67231;59.144;37.934;2023-04-21T10:11:08;3.17;;;1.63;;
77868;SDS011;67231;59.144;37.934;2023-04-21T10:13:36;3.55;;;1.63;;
77868;SDS011;67231;59.144;37.934;2023-04-21T10:16:04;3.92;;;1.40;;
77868;SDS011;67231;59.144;37.934;2023-04-21T10:18:36;2.42;;;1.30;;
77868;SDS011;67231;59.144;37.934;2023-04-21T10:21:06;2.83;;;1.30;;
77868;SDS011;67231;59.144;37.934;2023-04-21T10:23:41;3.80;;;1.25;;
77868;SDS011;67231;59.144;37.934;2023-04-21T10:26:12;6.63;;;2.00;;
77868;SDS011;67231;59.144;37.934;2023-04-21T10:28:53;3.60;;;1.83;;
77868;SDS011;67231;59.144;37.934;2023-04-21T10:39:29;8.02;;;1.80;;
77868;SDS011;67231;59.144;37.934;2023-04-21T10:44:42;5.10;;;1.70;;
77868;SDS011;67231;59.144;37.934;2023-04-21T10:47:09;13.35;;;4.40;;
77868;SDS011;67231;59.144;37.934;2023-04-21T10:49:39;11.80;;;4.07;;
77868;SDS011;67231;59.144;37.934;2023-04-21T10:52:06;9.80;;;4.63;;
77868;SDS011;67231;59.144;37.934;2023-04-21T10:57:11;4.38;;;1.80;;
77868;SDS011;67231;59.144;37.934;2023-04-21T10:59:43;4.78;;;1.50;;
77868;SDS011;67231;59.144;37.934;2023-04-21T11:02:10;2.22;;;1.30;;
77868;SDS011;67231;59.144;37.934;2023-04-21T11:04:38;6.57;;;1.60;;
77868;SDS011;67231;59.144;37.934;2023-04-21T11:07:13;4.05;;;1.85;;
77868;SDS011;67231;59.144;37.934;2023-04-21T11:09:42;3.72;;;1.98;;
77868;SDS011;67231;59.144;37.934;2023-04-21T11:12:16;3.78;;;1.60;;
77868;SDS011;67231;59.144;37.934;2023-04-21T11:14:43;4.30;;;1.48;;
77868;SDS011;67231;59.144;37.934;2023-04-21T11:17:13;3.50;;;1.73;;
77868;SDS011;67231;59.144;37.934;2023-04-21T11:19:44;2.13;;;1.35;;
77868;SDS011;67231;59.144;37.934;2023-04-21T11:22:11;3.35;;;1.35;;
77868;SDS011;67231;59.144;37.934;2023-04-21T11:24:37;2.70;;;1.30;;
77868;SDS011;67231;59.144;37.934;2023-04-21T11:27:11;2.50;;;1.40;;
77868;SDS011;67231;59.144;37.934;2023-04-21T11:29:39;3.67;;;1.40;;
77868;SDS011;67231;59.144;37.934;2023-04-21T11:32:06;3.92;;;1.30;;
77868;SDS011;67231;59.144;37.934;2023-04-21T11:34:37;3.03;;;1.45;;
77868;SDS011;67231;59.144;37.934;2023-04-21T11:37:03;2.00;;;1.20;;
77868;SDS011;67231;59.144;37.934;2023-04-21T11:39:32;3.78;;;1.63;;
77868;SDS011;67231;59.144;37.934;2023-04-21T11:41:59;3.85;;;1.88;;
77868;SDS011;67231;59.144;37.934;2023-04-21T11:47:14;6.00;;;1.60;;
77868;SDS011;67231;59.144;37.934;2023-04-21T11:49:59;3.28;;;1.40;;
77868;SDS011;67231;59.144;37.934;2023-04-21T11:52:31;5.90;;;1.70;;
77868;SDS011;67231;59.144;37.934;2023-04-21T11:55:04;3.28;;;1.80;;
77868;SDS011;67231;59.144;37.934;2023-04-21T11:57:31;4.78;;;2.60;;
77868;SDS011;67231;59.144;37.934;2023-04-21T11:59:58;2.38;;;1.30;;
77868;SDS011;67231;59.144;37.934;2023-04-21T12:02:27;3.15;;;1.70;;
77868;SDS011;67231;59.144;37.934;2023-04-21T12:05:05;5.95;;;2.28;;
77868;SDS011;67231;59.144;37.934;2023-04-21T12:07:45;4.68;;;2.20;;
77868;SDS011;67231;59.144;37.934;2023-04-21T12:10:17;2.75;;;1.42;;
77868;SDS011;67231;59.144;37.934;2023-04-21T12:12:46;7.85;;;1.48;;
77868;SDS011;67231;59.144;37.934;2023-04-21T12:15:19;5.75;;;1.83;;
77868;SDS011;67231;59.144;37.934;2023-04-21T12:17:49;7.50;;;1.50;;
77868;SDS011;67231;59.144;37.934;2023-04-21T12:20:23;3.90;;;1.50;;
77868;SDS011;67231;59.144;37.934;2023-04-21T12:22:51;8.52;;;1.40;;
77868;SDS011;67231;59.144;37.934;2023-04-21T12:25:18;5.75;;;1.85;;
77868;SDS011;67231;59.144;37.934;2023-04-21T12:27:53;6.50;;;2.00;;
77868;SDS011;67231;59.144;37.934;2023-04-21T12:30:22;3.78;;;1.58;;
77868;SDS011;67231;59.144;37.934;2023-04-21T12:32:49;5.72;;;1.48;;
77868;SDS011;67231;59.144;37.934;2023-04-21T12:35:16;10.10;;;1.73;;
77868;SDS011;67231;59.144;37.934;2023-04-21T12:37:43;4.18;;;1.52;;
77868;SDS011;67231;59.144;37.934;2023-04-21T12:40:09;6.70;;;1.38;;
77868;SDS011;67231;59.144;37.934;2023-04-21T12:42:36;4.45;;;1.42;;
77868;SDS011;67231;59.144;37.934;2023-04-21T12:45:03;2.20;;;1.25;;
77868;SDS011;67231;59.144;37.934;2023-04-21T12:47:30;5.65;;;1.13;;
77868;SDS011;67231;59.144;37.934;2023-04-21T12:49:57;4.63;;;1.70;;
77868;SDS011;67231;59.144;37.934;2023-04-21T12:52:23;3.78;;;1.23;;
77868;SDS011;67231;59.144;37.934;2023-04-21T12:54:49;6.45;;;1.40;;
77868;SDS011;67231;59.144;37.934;2023-04-21T12:57:15;3.22;;;1.40;;
77868;SDS011;67231;59.144;37.934;2023-04-21T12:59:42;4.28;;;1.50;;
77868;SDS011;67231;59.144;37.934;2023-04-21T13:02:08;2.80;;;1.40;;
77868;SDS011;67231;59.144;37.934;2023-04-21T13:04:36;3.55;;;1.65;;
77868;SDS011;67231;59.144;37.934;2023-04-21T13:07:03;3.20;;;1.50;;
77868;SDS011;67231;59.144;37.934;2023-04-21T13:09:30;3.75;;;1.73;;
77868;SDS011;67231;59.144;37.934;2023-04-21T13:11:56;2.20;;;1.40;;
77868;SDS011;67231;59.144;37.934;2023-04-21T13:14:22;7.32;;;1.52;;
77868;SDS011;67231;59.144;37.934;2023-04-21T13:16:49;3.38;;;1.52;;
77868;SDS011;67231;59.144;37.934;2023-04-21T13:19:15;3.25;;;1.60;;
77868;SDS011;67231;59.144;37.934;2023-04-21T13:21:41;4.20;;;1.60;;
77868;SDS011;67231;59.144;37.934;2023-04-21T13:24:07;5.10;;;1.77;;
77868;SDS011;67231;59.144;37.934;2023-04-21T13:26:34;7.18;;;1.90;;
77868;SDS011;67231;59.144;37.934;2023-04-21T13:29:01;2.83;;;1.65;;
77868;SDS011;67231;59.144;37.934;2023-04-21T13:31:28;8.27;;;2.40;;
77868;SDS011;67231;59.144;37.934;2023-04-21T13:33:55;6.18;;;1.88;;
77868;SDS011;67231;59.144;37.934;2023-04-21T13:36:21;6.30;;;2.00;;
77868;SDS011;67231;59.144;37.934;2023-04-21T13:38:48;8.13;;;2.83;;
77868;SDS011;67231;59.144;37.934;2023-04-21T13:41:16;4.00;;;2.00;;
77868;SDS011;67231;59.144;37.934;2023-04-21T13:43:42;3.17;;;1.67;;
77868;SDS011;67231;59.144;37.934;2023-04-21T13:46:09;17.85;;;2.00;;
77868;SDS011;67231;59.144;37.934;2023-04-21T13:48:36;3.85;;;1.50;;
77868;SDS011;67231;59.144;37.934;2023-04-21T13:51:03;3.67;;;1.50;;
77868;SDS011;67231;59.144;37.934;2023-04-21T13:53:29;3.15;;;1.70;;
77868;SDS011;67231;59.144;37.934;2023-04-21T13:55:56;4.78;;;2.10;;
77868;SDS011;67231;59.144;37.934;2023-04-21T13:58:24;2.97;;;1.63;;
77868;SDS011;67231;59.144;37.934;2023-04-21T14:00:50;3.28;;;1.67;;
77868;SDS011;67231;59.144;37.934;2023-04-21T14:03:17;6.38;;;2.47;;
77868;SDS011;67231;59.144;37.934;2023-04-21T14:05:44;5.75;;;1.58;;
77868;SDS011;67231;59.144;37.934;2023-04-21T14:08:10;4.20;;;1.85;;
77868;SDS011;67231;59.144;37.934;2023-04-21T14:10:37;4.85;;;1.92;;
77868;SDS011;67231;59.144;37.934;2023-04-21T14:13:03;6.05;;;2.15;;
77868;SDS011;67231;59.144;37.934;2023-04-21T14:15:30;8.60;;;2.58;;
77868;SDS011;67231;59.144;37.934;2023-04-21T14:17:57;6.95;;;2.95;;
77868;SDS011;67231;59.144;37.934;2023-04-21T14:20:23;6.55;;;1.60;;
77868;SDS011;67231;59.144;37.934;2023-04-21T14:22:49;4.28;;;1.50;;
77868;SDS011;67231;59.144;37.934;2023-04-21T14:25:16;3.10;;;1.40;;
77868;SDS011;67231;59.144;37.934;2023-04-21T14:27:42;6.35;;;2.15;;
77868;SDS011;67231;59.144;37.934;2023-04-21T14:30:09;4.70;;;1.70;;
77868;SDS011;67231;59.144;37.934;2023-04-21T14:32:36;3.40;;;1.42;;
77868;SDS011;67231;59.144;37.934;2023-04-21T14:35:02;4.65;;;1.40;;
77868;SDS011;67231;59.144;37.934;2023-04-21T14:37:31;3.80;;;1.75;;
77868;SDS011;67231;59.144;37.934;2023-04-21T14:39:58;13.55;;;6.20;;
77868;SDS011;67231;59.144;37.934;2023-04-21T14:42:26;5.28;;;1.55;;
77868;SDS011;67231;59.144;37.934;2023-04-21T14:44:52;4.68;;;1.90;;
77868;SDS011;67231;59.144;37.934;2023-04-21T14:47:19;7.50;;;2.42;;
77868;SDS011;67231;59.144;37.934;2023-04-21T14:49:47;4.47;;;1.70;;
77868;SDS011;67231;59.144;37.934;2023-04-21T14:52:17;6.05;;;2.50;;
77868;SDS011;67231;59.144;37.934;2023-04-21T14:54:44;12.77;;;3.53;;
77868;SDS011;67231;59.144;37.934;2023-04-21T14:57:10;9.65;;;2.65;;